createdAt,value
2018-09-13T00:00:02.708Z,1016.43
2018-09-13T00:01:02.635Z,1016.44
2018-09-13T00:02:02.545Z,1016.45
2018-09-13T00:03:02.472Z,1016.42
2018-09-13T00:04:02.387Z,1016.44
2018-09-13T00:05:02.308Z,1016.41
2018-09-13T00:06:02.234Z,1016.41
2018-09-13T00:07:02.149Z,1016.44
2018-09-13T00:08:02.071Z,1016.43
2018-09-13T00:09:01.992Z,1016.43
2018-09-13T00:10:01.911Z,1016.39
2018-09-13T00:11:01.834Z,1016.44
2018-09-13T00:12:01.759Z,1016.43
2018-09-13T00:13:01.674Z,1016.41
2018-09-13T00:14:01.594Z,1016.37
2018-09-13T00:15:01.511Z,1016.37
2018-09-13T00:16:01.437Z,1016.37
2018-09-13T00:17:01.348Z,1016.36
2018-09-13T00:18:01.272Z,1016.36
2018-09-13T00:19:01.185Z,1016.33
2018-09-13T00:20:01.110Z,1016.31
2018-09-13T00:21:01.039Z,1016.30
2018-09-13T00:22:00.960Z,1016.23
2018-09-13T00:23:00.872Z,1016.23
2018-09-13T00:24:00.787Z,1016.25
2018-09-13T00:25:00.713Z,1016.30
2018-09-13T00:26:00.625Z,1016.33
2018-09-13T00:27:00.549Z,1016.37
2018-09-13T00:28:00.473Z,1016.39
2018-09-13T00:29:00.391Z,1016.38
2018-09-13T00:30:00.311Z,1016.42
2018-09-13T00:31:00.243Z,1016.39
2018-09-13T00:32:00.162Z,1016.42
2018-09-13T00:33:00.073Z,1016.38
2018-09-13T00:33:59.988Z,1016.39
2018-09-13T00:34:59.914Z,1016.39
2018-09-13T00:35:59.824Z,1016.43
2018-09-13T00:36:59.768Z,1016.47
2018-09-13T00:37:59.673Z,1016.51
2018-09-13T00:38:59.591Z,1016.46
2018-09-13T00:39:59.513Z,1016.53
2018-09-13T00:40:59.424Z,1016.52
2018-09-13T00:41:59.363Z,1016.53
2018-09-13T00:42:59.264Z,1016.52
2018-09-13T00:43:59.191Z,1016.49
2018-09-13T00:44:59.113Z,1016.46
2018-09-13T00:45:59.027Z,1016.42
2018-09-13T00:46:58.963Z,1016.36
2018-09-13T00:47:58.864Z,1016.36
2018-09-13T00:48:58.793Z,1016.37
2018-09-13T00:49:58.704Z,1016.38
2018-09-13T00:50:58.625Z,1016.43
2018-09-13T00:51:58.564Z,1016.43
2018-09-13T00:52:58.464Z,1016.45
2018-09-13T00:53:58.396Z,1016.46
2018-09-13T00:54:58.300Z,1016.43
2018-09-13T00:55:58.226Z,1016.47
2018-09-13T00:56:58.151Z,1016.44
2018-09-13T00:57:58.064Z,1016.44
2018-09-13T00:58:58.043Z,1016.43
2018-09-13T00:59:57.902Z,1016.45
2018-09-13T01:00:57.826Z,1016.40
2018-09-13T01:01:57.740Z,1016.36
2018-09-13T01:02:57.665Z,1016.40
2018-09-13T01:03:57.578Z,1016.45
2018-09-13T01:04:57.502Z,1016.47
2018-09-13T01:05:57.427Z,1016.53
2018-09-13T01:06:57.343Z,1016.57
2018-09-13T01:07:57.265Z,1016.50
2018-09-13T01:08:57.177Z,1016.55
2018-09-13T01:09:57.102Z,1016.50
2018-09-13T01:10:57.028Z,1016.54
2018-09-13T01:11:56.942Z,1016.51
2018-09-13T01:12:56.867Z,1016.54
2018-09-13T01:13:56.778Z,1016.52
2018-09-13T01:14:56.703Z,1016.55
2018-09-13T01:15:56.617Z,1016.52
2018-09-13T01:16:56.542Z,1016.50
2018-09-13T01:17:56.466Z,1016.52
2018-09-13T01:18:56.379Z,1016.47
2018-09-13T01:19:56.304Z,1016.54
2018-09-13T01:20:56.218Z,1016.52
2018-09-13T01:21:56.142Z,1016.50
2018-09-13T01:22:56.057Z,1016.53
2018-09-13T01:23:55.980Z,1016.45
2018-09-13T01:24:55.905Z,1016.47
2018-09-13T01:25:55.817Z,1016.46
2018-09-13T01:26:55.743Z,1016.48
2018-09-13T01:27:55.656Z,1016.52
2018-09-13T01:28:55.579Z,1016.48
2018-09-13T01:29:55.494Z,1016.50
2018-09-13T01:30:55.419Z,1016.50
2018-09-13T01:31:55.344Z,1016.47
2018-09-13T01:32:55.255Z,1016.49
2018-09-13T01:33:55.180Z,1016.47
2018-09-13T01:34:55.094Z,1016.43
2018-09-13T01:35:55.019Z,1016.49
2018-09-13T01:36:54.931Z,1016.49
2018-09-13T01:37:54.856Z,1016.51
2018-09-13T01:38:54.784Z,1016.53
2018-09-13T01:39:54.694Z,1016.53
2018-09-13T01:40:54.619Z,1016.55
2018-09-13T01:41:54.532Z,1016.56
2018-09-13T01:42:54.456Z,1016.56
2018-09-13T01:43:54.370Z,1016.60
2018-09-13T01:44:54.295Z,1016.59
2018-09-13T01:45:54.222Z,1016.64
2018-09-13T01:46:54.131Z,1016.63
2018-09-13T01:47:54.045Z,1016.68
2018-09-13T01:48:53.970Z,1016.65
2018-09-13T01:49:53.896Z,1016.65
2018-09-13T01:50:53.809Z,1016.58
2018-09-13T01:51:53.732Z,1016.59
2018-09-13T01:52:53.646Z,1016.56
2018-09-13T01:53:53.571Z,1016.57
2018-09-13T01:54:53.483Z,1016.58
2018-09-13T01:55:53.408Z,1016.55
2018-09-13T01:56:53.321Z,1016.56
2018-09-13T01:57:53.247Z,1016.54
2018-09-13T01:58:53.171Z,1016.57
2018-09-13T01:59:53.084Z,1016.57
2018-09-13T02:00:53.008Z,1016.55
2018-09-13T02:01:52.924Z,1016.51
2018-09-13T02:02:52.847Z,1016.55
2018-09-13T02:03:52.760Z,1016.54
2018-09-13T02:04:52.684Z,1016.55
2018-09-13T02:05:52.597Z,1016.55
2018-09-13T02:06:52.522Z,1016.56
2018-09-13T02:07:52.434Z,1016.66
2018-09-13T02:08:52.360Z,1016.61
2018-09-13T02:09:52.274Z,1016.62
2018-09-13T02:10:52.198Z,1016.59
2018-09-13T02:11:52.111Z,1016.58
2018-09-13T02:12:52.035Z,1016.59
2018-09-13T02:13:51.960Z,1016.64
2018-09-13T02:14:51.873Z,1016.64
2018-09-13T02:15:51.798Z,1016.64
2018-09-13T02:16:51.722Z,1016.67
2018-09-13T02:17:51.635Z,1016.68
2018-09-13T02:18:51.562Z,1016.66
2018-09-13T02:19:51.474Z,1016.62
2018-09-13T02:20:51.386Z,1016.64
2018-09-13T02:21:51.323Z,1016.63
2018-09-13T02:22:51.235Z,1016.64
2018-09-13T02:23:51.149Z,1016.65
2018-09-13T02:24:51.074Z,1016.65
2018-09-13T02:25:50.988Z,1016.63
2018-09-13T02:26:50.911Z,1016.62
2018-09-13T02:27:50.824Z,1016.64
2018-09-13T02:28:50.750Z,1016.59
2018-09-13T02:29:50.661Z,1016.59
2018-09-13T02:30:50.586Z,1016.56
2018-09-13T02:31:50.501Z,1016.53
2018-09-13T02:32:50.424Z,1016.44
2018-09-13T02:33:50.350Z,1016.44
2018-09-13T02:34:50.262Z,1016.38
2018-09-13T02:35:50.187Z,1016.39
2018-09-13T02:36:50.100Z,1016.37
2018-09-13T02:37:50.031Z,1016.34
2018-09-13T02:38:49.937Z,1016.34
2018-09-13T02:39:49.866Z,1016.30
2018-09-13T02:40:49.778Z,1016.28
2018-09-13T02:41:49.702Z,1016.25
2018-09-13T02:42:49.614Z,1016.22
2018-09-13T02:43:49.538Z,1016.24
2018-09-13T02:44:49.475Z,1016.25
2018-09-13T02:45:49.377Z,1016.30
2018-09-13T02:46:49.301Z,1016.32
2018-09-13T02:47:49.225Z,1016.37
2018-09-13T02:48:49.138Z,1016.45
2018-09-13T02:49:49.053Z,1016.47
2018-09-13T02:50:48.988Z,1016.48
2018-09-13T02:51:48.889Z,1016.50
2018-09-13T02:52:48.817Z,1016.54
2018-09-13T02:53:48.760Z,1016.53
2018-09-13T02:54:48.653Z,1016.47
2018-09-13T02:55:48.578Z,1016.48
2018-09-13T02:56:48.490Z,1016.52
2018-09-13T02:57:48.414Z,1016.54
2018-09-13T02:58:48.331Z,1016.55
2018-09-13T02:59:48.252Z,1016.58
2018-09-13T03:00:48.164Z,1016.60
2018-09-13T03:01:48.090Z,1016.57
2018-09-13T03:02:48.003Z,1016.59
2018-09-13T03:03:47.929Z,1016.61
2018-09-13T03:04:47.840Z,1016.58
2018-09-13T03:05:47.766Z,1016.62
2018-09-13T03:06:47.690Z,1016.53
2018-09-13T03:07:47.604Z,1016.55
2018-09-13T03:08:47.529Z,1016.58
2018-09-13T03:09:47.440Z,1016.56
2018-09-13T03:10:47.365Z,1016.55
2018-09-13T03:11:47.281Z,1016.55
2018-09-13T03:12:47.205Z,1016.56
2018-09-13T03:13:47.116Z,1016.53
2018-09-13T03:14:47.041Z,1016.57
2018-09-13T03:15:46.954Z,1016.52
2018-09-13T03:16:46.880Z,1016.54
2018-09-13T03:17:46.806Z,1016.55
2018-09-13T03:18:46.717Z,1016.47
2018-09-13T03:19:46.642Z,1016.48
2018-09-13T03:20:46.559Z,1016.46
2018-09-13T03:21:46.480Z,1016.45
2018-09-13T03:22:46.392Z,1016.45
2018-09-13T03:23:46.320Z,1016.40
2018-09-13T03:24:46.231Z,1016.38
2018-09-13T03:25:46.156Z,1016.40
2018-09-13T03:26:46.081Z,1016.38
2018-09-13T03:27:45.992Z,1016.39
2018-09-13T03:28:45.918Z,1016.37
2018-09-13T03:29:45.830Z,1016.38
2018-09-13T03:30:45.757Z,1016.39
2018-09-13T03:31:45.689Z,1016.37
2018-09-13T03:32:45.607Z,1016.31
2018-09-13T03:33:45.509Z,1016.36
2018-09-13T03:34:45.431Z,1016.32
2018-09-13T03:35:45.344Z,1016.32
2018-09-13T03:36:45.269Z,1016.32
2018-09-13T03:37:45.207Z,1016.31
2018-09-13T03:38:45.129Z,1016.27
2018-09-13T03:39:45.034Z,1016.15
2018-09-13T03:40:44.944Z,1016.13
2018-09-13T03:41:44.869Z,1016.14
2018-09-13T03:42:44.782Z,1016.15
2018-09-13T03:43:44.708Z,1016.18
2018-09-13T03:44:44.619Z,1016.22
2018-09-13T03:45:44.544Z,1016.21
2018-09-13T03:46:44.472Z,1016.18
2018-09-13T03:47:44.382Z,1016.21
2018-09-13T03:48:44.314Z,1016.18
2018-09-13T03:49:44.222Z,1016.19
2018-09-13T03:50:44.146Z,1016.19
2018-09-13T03:51:44.064Z,1016.17
2018-09-13T03:52:43.986Z,1016.14
2018-09-13T03:53:43.895Z,1016.13
2018-09-13T03:54:43.820Z,1016.17
2018-09-13T03:55:43.734Z,1016.12
2018-09-13T03:56:43.659Z,1016.16
2018-09-13T03:57:43.571Z,1016.15
2018-09-13T03:58:43.499Z,1016.20
2018-09-13T03:59:43.422Z,1016.19
2018-09-13T04:00:43.335Z,1016.17
2018-09-13T04:01:43.259Z,1016.18
2018-09-13T04:02:43.172Z,1016.17
2018-09-13T04:03:43.097Z,1016.18
2018-09-13T04:04:43.010Z,1016.16
2018-09-13T04:05:42.939Z,1016.20
2018-09-13T04:06:42.846Z,1016.18
2018-09-13T04:07:42.773Z,1016.16
2018-09-13T04:08:42.687Z,1016.15
2018-09-13T04:09:42.611Z,1016.16
2018-09-13T04:10:42.522Z,1016.19
2018-09-13T04:11:42.451Z,1016.23
2018-09-13T04:12:42.361Z,1016.21
2018-09-13T04:13:42.286Z,1016.17
2018-09-13T04:14:42.199Z,1016.18
2018-09-13T04:15:42.123Z,1016.14
2018-09-13T04:16:42.048Z,1016.17
2018-09-13T04:17:41.961Z,1016.15
2018-09-13T04:18:41.892Z,1016.15
2018-09-13T04:19:41.799Z,1016.15
2018-09-13T04:20:41.724Z,1016.20
2018-09-13T04:21:41.637Z,1016.21
2018-09-13T04:22:41.579Z,1016.25
2018-09-13T04:23:41.486Z,1016.22
2018-09-13T04:24:41.409Z,1016.27
2018-09-13T04:25:41.318Z,1016.23
2018-09-13T04:26:41.237Z,1016.23
2018-09-13T04:27:41.149Z,1016.20
2018-09-13T04:28:41.087Z,1016.22
2018-09-13T04:29:40.987Z,1016.25
2018-09-13T04:30:40.923Z,1016.25
2018-09-13T04:31:40.829Z,1016.23
2018-09-13T04:32:40.749Z,1016.26
2018-09-13T04:33:40.663Z,1016.20
2018-09-13T04:34:40.588Z,1016.23
2018-09-13T04:35:40.528Z,1016.23
2018-09-13T04:36:40.425Z,1016.24
2018-09-13T04:37:40.351Z,1016.25
2018-09-13T04:38:40.263Z,1016.24
2018-09-13T04:39:40.188Z,1016.23
2018-09-13T04:40:40.100Z,1016.26
2018-09-13T04:41:40.026Z,1016.27
2018-09-13T04:42:39.939Z,1016.26
2018-09-13T04:43:39.864Z,1016.30
2018-09-13T04:44:39.791Z,1016.36
2018-09-13T04:45:39.704Z,1016.31
2018-09-13T04:46:39.620Z,1016.31
2018-09-13T04:47:39.547Z,1016.26
2018-09-13T04:48:39.451Z,1016.27
2018-09-13T04:49:39.378Z,1016.23
2018-09-13T04:50:39.290Z,1016.24
2018-09-13T04:51:39.216Z,1016.19
2018-09-13T04:52:39.132Z,1016.19
2018-09-13T04:53:39.052Z,1016.22
2018-09-13T04:54:38.965Z,1016.20
2018-09-13T04:55:38.890Z,1016.22
2018-09-13T04:56:38.816Z,1016.23
2018-09-13T04:57:38.727Z,1016.27
2018-09-13T04:58:38.652Z,1016.26
2018-09-13T04:59:38.566Z,1016.25
2018-09-13T05:00:38.479Z,1016.26
2018-09-13T05:01:38.417Z,1016.21
2018-09-13T05:02:38.328Z,1016.19
2018-09-13T05:03:38.241Z,1016.21
2018-09-13T05:04:38.170Z,1016.20
2018-09-13T05:05:38.079Z,1016.21
2018-09-13T05:06:38.093Z,1016.20
2018-09-13T05:07:37.917Z,1016.22
2018-09-13T05:08:37.842Z,1016.23
2018-09-13T05:09:37.754Z,1016.26
2018-09-13T05:10:37.682Z,1016.23
2018-09-13T05:11:37.592Z,1016.24
2018-09-13T05:12:37.518Z,1016.22
2018-09-13T05:13:37.429Z,1016.22
2018-09-13T05:14:37.359Z,1016.23
2018-09-13T05:15:37.279Z,1016.27
2018-09-13T05:16:37.194Z,1016.31
2018-09-13T05:17:37.119Z,1016.35
2018-09-13T05:18:37.030Z,1016.36
2018-09-13T05:19:36.943Z,1016.37
2018-09-13T05:20:36.868Z,1016.39
2018-09-13T05:21:36.780Z,1016.38
2018-09-13T05:22:36.707Z,1016.38
2018-09-13T05:23:36.622Z,1016.38
2018-09-13T05:24:36.545Z,1016.38
2018-09-13T05:25:36.457Z,1016.39
2018-09-13T05:26:36.381Z,1016.37
2018-09-13T05:27:36.319Z,1016.36
2018-09-13T05:28:36.219Z,1016.36
2018-09-13T05:29:36.144Z,1016.33
2018-09-13T05:30:36.056Z,1016.36
2018-09-13T05:31:35.999Z,1016.34
2018-09-13T05:32:35.894Z,1016.32
2018-09-13T05:33:35.820Z,1016.35
2018-09-13T05:34:35.732Z,1016.39
2018-09-13T05:35:35.657Z,1016.34
2018-09-13T05:36:35.570Z,1016.37
2018-09-13T05:37:35.503Z,1016.35
2018-09-13T05:38:35.407Z,1016.34
2018-09-13T05:39:35.332Z,1016.33
2018-09-13T05:40:35.245Z,1016.30
2018-09-13T05:41:35.171Z,1016.24
2018-09-13T05:42:35.082Z,1016.22
2018-09-13T05:43:35.008Z,1016.17
2018-09-13T05:44:34.932Z,1016.13
2018-09-13T05:45:34.846Z,1016.13
2018-09-13T05:46:34.761Z,1016.11
2018-09-13T05:47:34.683Z,1016.16
2018-09-13T05:48:34.607Z,1016.21
2018-09-13T05:49:34.522Z,1016.20
2018-09-13T05:50:34.446Z,1016.23
2018-09-13T05:51:34.359Z,1016.23
2018-09-13T05:52:34.283Z,1016.20
2018-09-13T05:53:34.197Z,1016.13
2018-09-13T05:54:34.123Z,1016.12
2018-09-13T05:55:34.034Z,1016.09
2018-09-13T05:56:33.959Z,1016.06
2018-09-13T05:57:33.873Z,1016.14
2018-09-13T05:58:33.797Z,1016.17
2018-09-13T05:59:33.709Z,1016.24
2018-09-13T06:00:33.634Z,1016.32
2018-09-13T06:01:33.547Z,1016.33
2018-09-13T06:02:33.473Z,1016.34
2018-09-13T06:03:33.384Z,1016.35
2018-09-13T06:04:33.310Z,1016.32
2018-09-13T06:05:33.223Z,1016.32
2018-09-13T06:06:33.148Z,1016.34
2018-09-13T06:07:33.060Z,1016.36
2018-09-13T06:08:32.985Z,1016.38
2018-09-13T06:09:32.899Z,1016.43
2018-09-13T06:10:32.823Z,1016.45
2018-09-13T06:11:32.735Z,1016.51
2018-09-13T06:12:32.661Z,1016.47
2018-09-13T06:13:32.617Z,1016.44
2018-09-13T06:14:32.499Z,1016.50
2018-09-13T06:15:32.410Z,1016.58
2018-09-13T06:16:32.336Z,1016.61
2018-09-13T06:17:32.260Z,1016.68
2018-09-13T06:18:32.174Z,1016.63
2018-09-13T06:19:32.088Z,1016.61
2018-09-13T06:20:32.011Z,1016.55
2018-09-13T06:21:31.933Z,1016.49
2018-09-13T06:22:31.850Z,1016.48
2018-09-13T06:23:31.761Z,1016.46
2018-09-13T06:24:31.687Z,1016.43
2018-09-13T06:25:31.600Z,1016.41
2018-09-13T06:26:31.526Z,1016.46
2018-09-13T06:27:31.450Z,1016.42
2018-09-13T06:28:31.362Z,1016.44
2018-09-13T06:29:31.372Z,1016.35
2018-09-13T06:30:31.200Z,1016.30
2018-09-13T06:31:31.112Z,1016.27
2018-09-13T06:32:31.050Z,1016.31
2018-09-13T06:33:30.952Z,1016.36
2018-09-13T06:34:30.881Z,1016.39
2018-09-13T06:35:30.789Z,1016.35
2018-09-13T06:36:30.770Z,1016.28
2018-09-13T06:37:30.652Z,1016.30
2018-09-13T06:38:30.553Z,1016.33
2018-09-13T06:39:30.467Z,1016.36
2018-09-13T06:40:30.408Z,1016.44
2018-09-13T06:41:30.313Z,1016.51
2018-09-13T06:42:30.268Z,1016.58
2018-09-13T06:43:30.153Z,1016.66
2018-09-13T06:44:30.067Z,1016.71
2018-09-13T06:45:29.991Z,1016.73
2018-09-13T06:46:29.903Z,1016.75
2018-09-13T06:47:29.829Z,1016.76
2018-09-13T06:48:29.767Z,1016.76
2018-09-13T06:49:29.665Z,1016.74
2018-09-13T06:50:29.586Z,1016.75
2018-09-13T06:51:29.505Z,1016.74
2018-09-13T06:52:29.416Z,1016.75
2018-09-13T06:53:29.341Z,1016.73
2018-09-13T06:54:29.265Z,1016.70
2018-09-13T06:55:29.186Z,1016.68
2018-09-13T06:56:29.104Z,1016.70
2018-09-13T06:57:29.016Z,1016.71
2018-09-13T06:58:28.941Z,1016.72
2018-09-13T06:59:28.854Z,1016.72
2018-09-13T07:00:28.785Z,1016.69
2018-09-13T07:01:28.692Z,1016.71
2018-09-13T07:02:28.686Z,1016.75
2018-09-13T07:03:28.530Z,1016.80
2018-09-13T07:04:28.459Z,1016.76
2018-09-13T07:05:28.381Z,1016.74
2018-09-13T07:06:28.293Z,1016.71
2018-09-13T07:07:28.217Z,1016.72
2018-09-13T07:08:28.130Z,1016.68
2018-09-13T07:09:28.055Z,1016.71
2018-09-13T07:10:27.969Z,1016.72
2018-09-13T07:11:27.892Z,1016.75
2018-09-13T07:12:27.808Z,1016.75
2018-09-13T07:13:27.732Z,1016.79
2018-09-13T07:14:27.655Z,1016.73
2018-09-13T07:15:27.581Z,1016.76
2018-09-13T07:16:27.493Z,1016.83
2018-09-13T07:17:27.409Z,1016.81
2018-09-13T07:18:27.331Z,1016.80
2018-09-13T07:19:27.243Z,1016.81
2018-09-13T07:20:27.169Z,1016.76
2018-09-13T07:21:27.081Z,1016.79
2018-09-13T07:22:27.006Z,1016.83
2018-09-13T07:23:26.940Z,1016.81
2018-09-13T07:24:26.844Z,1016.78
2018-09-13T07:25:26.768Z,1016.76
2018-09-13T07:26:26.682Z,1016.72
2018-09-13T07:27:26.608Z,1016.74
2018-09-13T07:28:26.532Z,1016.72
2018-09-13T07:29:26.444Z,1016.76
2018-09-13T07:30:26.364Z,1016.70
2018-09-13T07:31:26.283Z,1016.75
2018-09-13T07:32:26.207Z,1016.74
2018-09-13T07:33:26.119Z,1016.75
2018-09-13T07:34:26.045Z,1016.84
2018-09-13T07:35:25.958Z,1016.85
2018-09-13T07:36:25.882Z,1016.85
2018-09-13T07:37:25.794Z,1016.84
2018-09-13T07:38:25.720Z,1016.79
2018-09-13T07:39:25.633Z,1016.79
2018-09-13T07:40:25.558Z,1016.76
2018-09-13T07:41:25.491Z,1016.79
2018-09-13T07:42:25.462Z,1016.82
2018-09-13T07:43:25.322Z,1016.79
2018-09-13T07:44:25.239Z,1016.81
2018-09-13T07:45:25.159Z,1016.77
2018-09-13T07:46:25.071Z,1016.75
2018-09-13T07:47:24.996Z,1016.71
2018-09-13T07:48:24.925Z,1016.66
2018-09-13T07:49:24.908Z,1016.58
2018-09-13T07:50:24.766Z,1016.56
2018-09-13T07:51:24.671Z,1016.61
2018-09-13T07:52:24.585Z,1016.60
2018-09-13T07:53:24.509Z,1016.62
2018-09-13T07:54:24.422Z,1016.65
2018-09-13T07:55:24.359Z,1016.67
2018-09-13T07:56:24.266Z,1016.73
2018-09-13T07:57:24.186Z,1016.77
2018-09-13T07:58:24.101Z,1016.79
2018-09-13T07:59:24.022Z,1016.83
2018-09-13T08:00:23.937Z,1016.83
2018-09-13T08:01:23.861Z,1016.82
2018-09-13T08:02:23.773Z,1016.83
2018-09-13T08:03:23.698Z,1016.83
2018-09-13T08:04:23.623Z,1016.84
2018-09-13T08:05:23.537Z,1016.86
2018-09-13T08:06:23.460Z,1016.88
2018-09-13T08:07:23.373Z,1016.88
2018-09-13T08:08:23.286Z,1016.82
2018-09-13T08:09:23.211Z,1016.82
2018-09-13T08:10:23.124Z,1016.82
2018-09-13T08:11:23.048Z,1016.77
2018-09-13T08:12:22.961Z,1016.78
2018-09-13T08:13:22.887Z,1016.74
2018-09-13T08:14:22.800Z,1016.71
2018-09-13T08:15:22.724Z,1016.70
2018-09-13T08:16:22.643Z,1016.68
2018-09-13T08:17:22.567Z,1016.68
2018-09-13T08:18:22.475Z,1016.66
2018-09-13T08:19:22.412Z,1016.72
2018-09-13T08:20:22.312Z,1016.67
2018-09-13T08:21:22.241Z,1016.71
2018-09-13T08:22:22.152Z,1016.72
2018-09-13T08:23:22.074Z,1016.75
2018-09-13T08:24:21.987Z,1016.70
2018-09-13T08:25:21.913Z,1016.72
2018-09-13T08:26:21.826Z,1016.75
2018-09-13T08:27:21.769Z,1016.74
2018-09-13T08:28:21.664Z,1016.74
2018-09-13T08:29:21.589Z,1016.75
2018-09-13T08:30:21.516Z,1016.81
2018-09-13T08:31:21.426Z,1016.81
2018-09-13T08:32:21.351Z,1016.83
2018-09-13T08:33:21.300Z,1016.80
2018-09-13T08:34:21.189Z,1016.84
2018-09-13T08:35:21.101Z,1016.86
2018-09-13T08:36:21.039Z,1016.90
2018-09-13T08:37:20.941Z,1016.92
2018-09-13T08:38:20.864Z,1016.95
2018-09-13T08:39:20.776Z,1016.96
2018-09-13T08:40:20.744Z,1016.89
2018-09-13T08:41:20.616Z,1016.86
2018-09-13T08:42:20.540Z,1016.82
2018-09-13T08:43:20.452Z,1016.81
2018-09-13T08:44:20.378Z,1016.76
2018-09-13T08:45:20.302Z,1016.79
2018-09-13T08:46:20.215Z,1016.72
2018-09-13T08:47:20.141Z,1016.70
2018-09-13T08:48:20.053Z,1016.67
2018-09-13T08:49:19.978Z,1016.66
2018-09-13T08:50:19.890Z,1016.69
2018-09-13T08:51:19.816Z,1016.68
2018-09-13T08:52:19.743Z,1016.69
2018-09-13T08:53:19.653Z,1016.65
2018-09-13T08:54:19.566Z,1016.70
2018-09-13T08:55:19.491Z,1016.74
2018-09-13T08:56:19.408Z,1016.76
2018-09-13T08:57:19.329Z,1016.76
2018-09-13T08:58:19.254Z,1016.78
2018-09-13T08:59:19.167Z,1016.78
2018-09-13T09:00:19.092Z,1016.77
2018-09-13T09:01:19.004Z,1016.75
2018-09-13T09:02:18.931Z,1016.76
2018-09-13T09:03:18.842Z,1016.72
2018-09-13T09:04:18.767Z,1016.73
2018-09-13T09:05:18.680Z,1016.71
2018-09-13T09:06:18.637Z,1016.73
2018-09-13T09:07:18.532Z,1016.66
2018-09-13T09:08:18.443Z,1016.68
2018-09-13T09:09:18.368Z,1016.71
2018-09-13T09:10:18.280Z,1016.71
2018-09-13T09:11:18.218Z,1016.66
2018-09-13T09:12:18.118Z,1016.64
2018-09-13T09:13:18.043Z,1016.70
2018-09-13T09:14:17.955Z,1016.64
2018-09-13T09:15:17.880Z,1016.68
2018-09-13T09:16:17.793Z,1016.70
2018-09-13T09:17:17.718Z,1016.75
2018-09-13T09:18:17.631Z,1016.77
2018-09-13T09:19:17.556Z,1016.78
2018-09-13T09:20:17.484Z,1016.80
2018-09-13T09:21:17.394Z,1016.80
2018-09-13T09:22:17.319Z,1016.81
2018-09-13T09:23:17.231Z,1016.78
2018-09-13T09:24:17.156Z,1016.80
2018-09-13T09:25:17.070Z,1016.86
2018-09-13T09:26:16.995Z,1016.87
2018-09-13T09:27:16.906Z,1016.87
2018-09-13T09:28:16.834Z,1016.93
2018-09-13T09:29:16.790Z,1016.88
2018-09-13T09:30:16.670Z,1016.87
2018-09-13T09:31:16.582Z,1016.81
2018-09-13T09:32:16.507Z,1016.78
2018-09-13T09:33:16.421Z,1016.79
2018-09-13T09:34:16.346Z,1016.77
2018-09-13T09:35:16.270Z,1016.75
2018-09-13T09:36:16.182Z,1016.79
2018-09-13T09:37:16.109Z,1016.77
2018-09-13T09:38:16.021Z,1016.77
2018-09-13T09:39:15.946Z,1016.72
2018-09-13T09:40:15.859Z,1016.72
2018-09-13T09:41:15.784Z,1016.68
2018-09-13T09:42:15.697Z,1016.72
2018-09-13T09:43:15.622Z,1016.72
2018-09-13T09:44:15.540Z,1016.73
2018-09-13T09:45:15.458Z,1016.73
2018-09-13T09:46:15.372Z,1016.70
2018-09-13T09:47:15.298Z,1016.67
2018-09-13T09:48:15.285Z,1016.72
2018-09-13T09:49:15.135Z,1016.73
2018-09-13T09:50:15.106Z,1016.72
2018-09-13T09:51:14.973Z,1016.74
2018-09-13T09:52:14.910Z,1016.71
2018-09-13T09:53:14.813Z,1016.70
2018-09-13T09:54:14.738Z,1016.71
2018-09-13T09:55:14.661Z,1016.73
2018-09-13T09:56:14.671Z,1016.71
2018-09-13T09:57:14.498Z,1016.73
2018-09-13T09:58:14.423Z,1016.67
2018-09-13T09:59:14.335Z,1016.66
2018-09-13T10:00:14.260Z,1016.68
2018-09-13T10:01:14.173Z,1016.70
2018-09-13T10:02:14.085Z,1016.68
2018-09-13T10:03:14.011Z,1016.64
2018-09-13T10:04:13.943Z,1016.61
2018-09-13T10:05:13.848Z,1016.63
2018-09-13T10:06:13.762Z,1016.63
2018-09-13T10:07:13.686Z,1016.58
2018-09-13T10:08:13.611Z,1016.62
2018-09-13T10:09:13.524Z,1016.63
2018-09-13T10:10:13.450Z,1016.61
2018-09-13T10:11:13.362Z,1016.59
2018-09-13T10:12:13.286Z,1016.58
2018-09-13T10:13:13.200Z,1016.57
2018-09-13T10:14:13.125Z,1016.57
2018-09-13T10:15:13.111Z,1016.53
2018-09-13T10:16:13.272Z,1016.49
2018-09-13T10:17:12.887Z,1016.50
2018-09-13T10:18:12.801Z,1016.51
2018-09-13T10:19:12.725Z,1016.44
2018-09-13T10:20:12.650Z,1016.38
2018-09-13T10:21:12.562Z,1016.37
2018-09-13T10:22:12.489Z,1016.33
2018-09-13T10:23:12.401Z,1016.31
2018-09-13T10:24:12.326Z,1016.34
2018-09-13T10:25:12.243Z,1016.30
2018-09-13T10:26:12.163Z,1016.37
2018-09-13T10:27:12.077Z,1016.34
2018-09-13T10:28:12.003Z,1016.37
2018-09-13T10:29:11.965Z,1016.37
2018-09-13T10:30:11.838Z,1016.40
2018-09-13T10:31:11.765Z,1016.46
2018-09-13T10:32:11.695Z,1016.42
2018-09-13T10:33:11.602Z,1016.41
2018-09-13T10:34:11.516Z,1016.42
2018-09-13T10:35:11.439Z,1016.39
2018-09-13T10:36:11.367Z,1016.38
2018-09-13T10:37:11.278Z,1016.35
2018-09-13T10:38:11.203Z,1016.34
2018-09-13T10:39:11.114Z,1016.32
2018-09-13T10:40:11.039Z,1016.34
2018-09-13T10:41:10.965Z,1016.34
2018-09-13T10:42:10.882Z,1016.33
2018-09-13T10:43:10.804Z,1016.30
2018-09-13T10:44:10.716Z,1016.34
2018-09-13T10:45:10.642Z,1016.34
2018-09-13T10:46:10.559Z,1016.27
2018-09-13T10:47:10.479Z,1016.26
2018-09-13T10:48:10.431Z,1016.26
2018-09-13T10:49:10.329Z,1016.29
2018-09-13T10:50:10.241Z,1016.29
2018-09-13T10:51:10.157Z,1016.25
2018-09-13T10:52:10.088Z,1016.30
2018-09-13T10:53:10.005Z,1016.33
2018-09-13T10:54:09.930Z,1016.33
2018-09-13T10:55:09.845Z,1016.32
2018-09-13T10:56:09.757Z,1016.30
2018-09-13T10:57:09.681Z,1016.34
2018-09-13T10:58:09.594Z,1016.28
2018-09-13T10:59:09.586Z,1016.29
2018-09-13T11:00:09.443Z,1016.30
2018-09-13T11:01:09.358Z,1016.27
2018-09-13T11:02:09.282Z,1016.31
2018-09-13T11:03:09.194Z,1016.27
2018-09-13T11:04:09.164Z,1016.27
2018-09-13T11:05:09.042Z,1016.28
2018-09-13T11:06:08.959Z,1016.28
2018-09-13T11:07:08.885Z,1016.27
2018-09-13T11:08:08.807Z,1016.29
2018-09-13T11:09:08.718Z,1016.28
2018-09-13T11:10:08.643Z,1016.27
2018-09-13T11:11:08.630Z,1016.24
2018-09-13T11:12:08.481Z,1016.23
2018-09-13T11:13:08.407Z,1016.21
2018-09-13T11:14:08.319Z,1016.21
2018-09-13T11:15:08.257Z,1016.15
2018-09-13T11:16:08.157Z,1016.15
2018-09-13T11:17:08.082Z,1016.09
2018-09-13T11:18:08.006Z,1016.10
2018-09-13T11:19:07.919Z,1016.11
2018-09-13T11:20:07.857Z,1016.10
2018-09-13T11:21:07.769Z,1016.12
2018-09-13T11:22:07.683Z,1016.12
2018-09-13T11:23:07.645Z,1016.12
2018-09-13T11:24:07.532Z,1016.11
2018-09-13T11:25:07.459Z,1016.11
2018-09-13T11:26:07.370Z,1016.09
2018-09-13T11:27:07.283Z,1016.07
2018-09-13T11:28:07.208Z,1016.08
2018-09-13T11:29:07.133Z,1016.08
2018-09-13T11:30:07.059Z,1016.07
2018-09-13T11:31:06.983Z,1016.11
2018-09-13T11:32:06.883Z,1016.09
2018-09-13T11:33:06.809Z,1016.14
2018-09-13T11:34:06.733Z,1016.10
2018-09-13T11:35:06.658Z,1016.13
2018-09-13T11:36:06.572Z,1016.17
2018-09-13T11:37:06.496Z,1016.16
2018-09-13T11:38:06.421Z,1016.18
2018-09-13T11:39:06.333Z,1016.18
2018-09-13T11:40:06.333Z,1016.24
2018-09-13T11:41:06.214Z,1016.24
2018-09-13T11:42:06.099Z,1016.26
2018-09-13T11:43:06.010Z,1016.26
2018-09-13T11:44:05.935Z,1016.24
2018-09-13T11:45:05.860Z,1016.25
2018-09-13T11:46:05.771Z,1016.25
2018-09-13T11:47:05.696Z,1016.28
2018-09-13T11:48:05.622Z,1016.28
2018-09-13T11:49:05.536Z,1016.27
2018-09-13T11:50:05.460Z,1016.28
2018-09-13T11:51:05.372Z,1016.33
2018-09-13T11:52:05.314Z,1016.29
2018-09-13T11:53:05.227Z,1016.26
2018-09-13T11:54:05.210Z,1016.29
2018-09-13T11:55:05.062Z,1016.23
2018-09-13T11:56:04.985Z,1016.27
2018-09-13T11:57:04.901Z,1016.34
2018-09-13T11:58:04.824Z,1016.34
2018-09-13T11:59:04.743Z,1016.28
2018-09-13T12:00:04.662Z,1016.29
2018-09-13T12:01:04.624Z,1016.30
2018-09-13T12:02:04.521Z,1016.27
2018-09-13T12:03:04.423Z,1016.23
2018-09-13T12:04:04.348Z,1016.26